Terminal Aerodrome Forecast
Issued by NWS

Home | Current Version | Previous Version | Text Only | Print | Product List | Glossary On
Versions: 1 2 3 4 5 6 7 8 9 10 11 12 13 14 15 16 17
000
FTUS43 KPAH 241100
TAFCGI
TAF
KCGI 241123Z 2412/2512 00000KT P6SM BKN025
     FM241600 25004KT P6SM SCT030 BKN250
     FM250000 VRB02KT P6SM SCT250
     FM250900 23002KT 5SM BR SCT020=

USA.gov is the U.S. government's official web portal to all federal, state and local government web resources and services.